createdAt,value
2016-10-15T00:06:55.088Z,0
2016-10-15T00:17:09.638Z,0
2016-10-15T00:27:23.833Z,0
2016-10-15T00:37:38.937Z,0
2016-10-15T00:47:53.253Z,0
2016-10-15T00:58:07.178Z,0
2016-10-15T01:08:20.947Z,0
2016-10-15T01:18:35.963Z,0
2016-10-15T01:28:50.009Z,0
2016-10-15T01:39:03.518Z,0
2016-10-15T01:49:18.832Z,0
2016-10-15T01:59:33.124Z,0
2016-10-15T02:09:47.274Z,0
2016-10-15T02:20:00.650Z,0
2016-10-15T02:30:15.686Z,0
2016-10-15T02:40:30.439Z,0
2016-10-15T02:50:45.564Z,0
2016-10-15T03:01:00.220Z,0
2016-10-15T03:11:15.165Z,0
2016-10-15T03:21:29.784Z,0
2016-10-15T03:31:43.675Z,0
2016-10-15T03:41:57.607Z,0
2016-10-15T03:52:12.764Z,0
2016-10-15T04:02:27.436Z,0
2016-10-15T04:12:42.565Z,0
2016-10-15T04:22:56.915Z,0
2016-10-15T04:33:12.438Z,0
2016-10-15T04:43:26.614Z,0
2016-10-15T04:53:40.986Z,0
2016-10-15T05:03:55.368Z,0
2016-10-15T05:14:09.845Z,0
2016-10-15T05:24:23.531Z,0
2016-10-15T05:34:37.758Z,0
2016-10-15T05:44:51.583Z,0
2016-10-15T05:55:06.017Z,0
2016-10-15T06:05:19.978Z,0
2016-10-15T06:15:33.648Z,0
2016-10-15T06:25:48.468Z,5
2016-10-15T06:36:02.438Z,5
2016-10-15T06:46:17.208Z,5
2016-10-15T06:56:32.438Z,5
2016-10-15T07:06:47.322Z,15
2016-10-15T07:17:01.144Z,10
2016-10-15T07:27:15.857Z,10
2016-10-15T07:37:29.745Z,15
2016-10-15T07:47:44.844Z,35
2016-10-15T07:57:59.152Z,25
2016-10-15T08:08:13.990Z,10
2016-10-15T08:18:28.645Z,30
2016-10-15T08:28:42.239Z,25
2016-10-15T08:38:56.626Z,20
2016-10-15T08:49:10.588Z,20
2016-10-15T08:59:25.092Z,20
2016-10-15T09:09:38.680Z,25
2016-10-15T09:19:53.240Z,20
2016-10-15T09:30:06.815Z,55
2016-10-15T09:40:21.336Z,60
2016-10-15T09:50:35.047Z,25
2016-10-15T10:00:48.600Z,30
2016-10-15T10:11:03.121Z,35
2016-10-15T10:21:16.765Z,20
2016-10-15T10:31:31.402Z,25
2016-10-15T10:41:46.354Z,25
2016-10-15T10:52:01.439Z,25
2016-10-15T11:02:15.751Z,20
2016-10-15T11:12:31.200Z,25
2016-10-15T11:22:44.745Z,20
2016-10-15T11:32:58.764Z,20
2016-10-15T11:43:13.809Z,20
2016-10-15T11:53:27.765Z,15
2016-10-15T12:03:41.832Z,10
2016-10-15T12:13:55.705Z,15
2016-10-15T12:24:10.002Z,20
2016-10-15T12:34:24.091Z,20
2016-10-15T12:44:38.150Z,30
2016-10-15T12:54:53.198Z,25
2016-10-15T13:05:08.440Z,25
2016-10-15T13:15:22.212Z,15
2016-10-15T13:25:37.219Z,30
2016-10-15T13:35:51.660Z,30
2016-10-15T13:46:07.045Z,35
2016-10-15T13:56:21.937Z,20
2016-10-15T14:06:36.816Z,35
2016-10-15T14:16:51.747Z,25
2016-10-15T14:27:05.463Z,30
2016-10-15T14:37:18.895Z,25
2016-10-15T14:47:34.276Z,30
2016-10-15T14:57:47.980Z,25
2016-10-15T15:08:01.960Z,25
2016-10-15T15:18:16.178Z,15
2016-10-15T15:28:31.541Z,15
2016-10-15T15:38:45.345Z,20
2016-10-15T15:48:59.347Z,30
2016-10-15T15:59:13.163Z,20
2016-10-15T16:09:28.197Z,10
2016-10-15T16:19:42.799Z,5
2016-10-15T16:29:56.600Z,0
2016-10-15T16:40:10.701Z,0
2016-10-15T16:50:24.366Z,0
2016-10-15T17:00:37.811Z,0
2016-10-15T17:10:52.445Z,0
2016-10-15T17:21:06.960Z,0
2016-10-15T17:31:21.494Z,0
2016-10-15T17:41:35.147Z,0
2016-10-15T17:51:48.662Z,0
2016-10-15T18:02:03.250Z,0
2016-10-15T18:12:18.065Z,0
2016-10-15T18:22:32.856Z,0
2016-10-15T18:32:46.349Z,0
2016-10-15T18:42:59.949Z,0
2016-10-15T18:53:14.301Z,0
2016-10-15T19:03:27.886Z,0
2016-10-15T19:13:42.258Z,0
2016-10-15T19:23:57.115Z,0
2016-10-15T19:34:11.008Z,0
2016-10-15T19:44:25.142Z,0
2016-10-15T19:54:39.102Z,0
2016-10-15T20:04:54.234Z,0
2016-10-15T20:15:09.002Z,0
2016-10-15T20:25:23.261Z,0
2016-10-15T20:35:37.271Z,0
2016-10-15T20:45:51.538Z,0
2016-10-15T20:56:06.045Z,0
2016-10-15T21:06:19.711Z,0
2016-10-15T21:16:35.172Z,0
2016-10-15T21:26:49.111Z,0
2016-10-15T21:37:04.089Z,0
2016-10-15T21:47:18.885Z,0
2016-10-15T21:57:33.440Z,0
2016-10-15T22:07:48.549Z,0
2016-10-15T22:18:02.842Z,0
2016-10-15T22:28:17.726Z,0
2016-10-15T22:38:31.737Z,0
2016-10-15T22:48:45.433Z,0
2016-10-15T22:59:00.438Z,0
2016-10-15T23:09:15.547Z,0
2016-10-15T23:19:30.494Z,0
2016-10-15T23:29:44.152Z,0
2016-10-15T23:39:58.306Z,0
2016-10-15T23:50:12.339Z,0
